createdAt,value
2019-01-31T00:04:20.947Z,100260.27
2019-01-31T00:09:28.552Z,100265.19
2019-01-31T00:14:03.399Z,100265.24
2019-01-31T00:18:36.579Z,100274.90
2019-01-31T00:23:31.827Z,100271.88
2019-01-31T00:27:47.275Z,100278.34
2019-01-31T00:32:14.305Z,100282.67
2019-01-31T00:36:57.064Z,100288.37
2019-01-31T00:41:58.167Z,100285.75
2019-01-31T00:46:46.636Z,100290.94
2019-01-31T00:50:54.449Z,100290.34
2019-01-31T00:55:07.014Z,100297.20
2019-01-31T00:59:46.217Z,100306.83
2019-01-31T01:04:28.071Z,100307.83
2019-01-31T01:09:07.822Z,100310.77
2019-01-31T01:13:44.507Z,100314.23
2019-01-31T01:18:08.796Z,100309.91
2019-01-31T01:23:00.724Z,100319.16
2019-01-31T01:27:25.735Z,100323.41
2019-01-31T01:32:01.299Z,100328.52
2019-01-31T01:36:33.480Z,100326.27
2019-01-31T01:41:13.093Z,100329.42
2019-01-31T01:45:53.406Z,100333.35
2019-01-31T01:50:36.516Z,100332.13
2019-01-31T01:55:19.072Z,100336.19
2019-01-31T01:59:42.961Z,100335.84
2019-01-31T02:04:12.286Z,100339.45
2019-01-31T02:08:51.423Z,100340.31
2019-01-31T02:13:26.069Z,100338.59
2019-01-31T02:18:00.291Z,100344.83
2019-01-31T02:22:17.292Z,100340.44
2019-01-31T02:27:06.602Z,100346.54
2019-01-31T02:31:37.045Z,100348.84
2019-01-31T02:36:12.941Z,100349.61
2019-01-31T02:40:29.602Z,100345.69
2019-01-31T02:44:59.668Z,100344.19
2019-01-31T02:49:39.938Z,100354.12
2019-01-31T02:54:38.444Z,100359.00
2019-01-31T02:58:59.455Z,100362.52
2019-01-31T03:03:34.276Z,100362.98
2019-01-31T03:08:13.464Z,100360.04
2019-01-31T03:12:26.118Z,100364.42
2019-01-31T03:16:56.929Z,100376.74
2019-01-31T03:21:35.202Z,100381.45
2019-01-31T03:26:06.023Z,100389.95
2019-01-31T03:31:05.739Z,100388.51
2019-01-31T03:35:35.353Z,100386.88
2019-01-31T03:40:08.182Z,100387.01
2019-01-31T03:45:05.623Z,100403.13
2019-01-31T03:49:42.567Z,100416.55
2019-01-31T03:54:28.429Z,100414.46
2019-01-31T03:59:01.494Z,100417.08
2019-01-31T04:03:24.903Z,100421.47
2019-01-31T04:07:27.596Z,100425.07
2019-01-31T04:11:30.183Z,100420.69
2019-01-31T04:15:33.076Z,100421.87
2019-01-31T04:19:35.662Z,100417.94
2019-01-31T04:23:38.168Z,100425.45
2019-01-31T04:27:40.726Z,100421.53
2019-01-31T04:31:43.179Z,100423.50
2019-01-31T04:35:45.660Z,100432.12
2019-01-31T04:39:48.432Z,100424.80
2019-01-31T04:43:50.917Z,100421.98
2019-01-31T04:47:56.251Z,100426.67
2019-01-31T04:51:57.706Z,100425.61
2019-01-31T04:56:00.307Z,100432.16
2019-01-31T05:00:03.014Z,100434.08
2019-01-31T05:04:06.941Z,100431.05
2019-01-31T05:08:09.485Z,100437.52
2019-01-31T05:12:12.066Z,100445.50
2019-01-31T05:16:33.225Z,100452.50
2019-01-31T05:20:35.792Z,100461.38
2019-01-31T05:24:38.383Z,100463.95
2019-01-31T05:28:40.867Z,100470.16
2019-01-31T05:32:43.313Z,100472.25
2019-01-31T05:36:45.729Z,100475.20
2019-01-31T05:40:55.295Z,100477.25
2019-01-31T05:44:52.307Z,100483.67
2019-01-31T05:48:55.982Z,100493.12
2019-01-31T05:52:58.428Z,100501.95
2019-01-31T05:57:00.968Z,100501.05
2019-01-31T06:01:03.433Z,100499.28
2019-01-31T06:05:06.507Z,100503.70
2019-01-31T06:09:10.304Z,100509.92
2019-01-31T06:13:12.924Z,100513.11
2019-01-31T06:17:17.362Z,100513.92
2019-01-31T06:21:19.988Z,100514.30
2019-01-31T06:25:22.598Z,100519.48
2019-01-31T06:29:26.485Z,100523.98
2019-01-31T06:33:29.215Z,100531.05
2019-01-31T06:37:31.764Z,100544.18
2019-01-31T06:41:34.521Z,100547.73
2019-01-31T06:45:36.959Z,100550.80
2019-01-31T06:49:39.495Z,100555.63
2019-01-31T06:53:42.190Z,100555.17
2019-01-31T06:57:44.882Z,100554.39
2019-01-31T07:01:47.522Z,100564.38
2019-01-31T07:05:50.052Z,100563.55
2019-01-31T07:09:52.703Z,100566.95
2019-01-31T07:13:55.160Z,100569.13
2019-01-31T07:17:57.978Z,100572.52
2019-01-31T07:22:00.613Z,100575.59
2019-01-31T07:26:03.206Z,100579.52
2019-01-31T07:30:06.984Z,100582.13
2019-01-31T07:34:09.512Z,100592.67
2019-01-31T07:38:12.090Z,100597.16
2019-01-31T07:42:14.759Z,100605.05
2019-01-31T07:46:17.246Z,100594.55
2019-01-31T07:50:19.870Z,100598.06
2019-01-31T07:54:22.360Z,100607.86
2019-01-31T07:58:25.121Z,100610.91
2019-01-31T08:02:28.843Z,100615.20
2019-01-31T08:06:31.290Z,100629.75
2019-01-31T08:10:42.391Z,100616.55
2019-01-31T08:14:44.923Z,100626.80
2019-01-31T08:18:49.152Z,100631.02
2019-01-31T08:22:51.579Z,100634.41
2019-01-31T08:26:55.999Z,100639.89
2019-01-31T08:30:58.759Z,100636.41
2019-01-31T08:35:01.489Z,100643.08
2019-01-31T08:39:05.062Z,100643.74
2019-01-31T08:43:07.659Z,100648.86
2019-01-31T08:47:10.340Z,100654.32
2019-01-31T08:51:13.079Z,100659.28
2019-01-31T08:55:15.568Z,100653.23
2019-01-31T08:59:18.244Z,100658.84
2019-01-31T09:03:20.853Z,100657.25
2019-01-31T09:07:23.575Z,100660.53
2019-01-31T09:11:26.183Z,100664.95
2019-01-31T09:15:28.957Z,100667.45
2019-01-31T09:19:31.608Z,100666.34
2019-01-31T09:24:15.013Z,100680.31
2019-01-31T09:28:43.919Z,100680.39
2019-01-31T09:33:43.032Z,100674.04
2019-01-31T09:38:10.101Z,100682.44
2019-01-31T09:42:33.749Z,100671.55
2019-01-31T09:47:31.673Z,100676.24
2019-01-31T09:51:56.025Z,100681.76
2019-01-31T09:56:37.867Z,100685.19
2019-01-31T10:01:11.019Z,100688.31
2019-01-31T10:05:57.301Z,100688.88
2019-01-31T10:10:18.660Z,100691.30
2019-01-31T10:14:39.257Z,100698.20
2019-01-31T10:19:24.938Z,100703.12
2019-01-31T10:24:22.198Z,100708.25
2019-01-31T10:29:02.132Z,100701.20
2019-01-31T10:33:52.060Z,100704.55
2019-01-31T10:38:41.959Z,100702.47
2019-01-31T10:43:18.363Z,100704.37
2019-01-31T10:47:31.459Z,100711.11
2019-01-31T10:52:39.395Z,100711.13
2019-01-31T10:57:07.859Z,100714.80
2019-01-31T11:01:26.581Z,100712.08
2019-01-31T11:06:06.829Z,100719.91
2019-01-31T11:10:33.553Z,100725.03
2019-01-31T11:15:32.083Z,100723.81
2019-01-31T11:20:25.833Z,100734.22
2019-01-31T11:25:10.039Z,100737.12
2019-01-31T11:29:49.182Z,100742.22
2019-01-31T11:34:06.527Z,100748.03
2019-01-31T11:38:47.917Z,100749.14
2019-01-31T11:43:30.959Z,100755.24
2019-01-31T11:47:56.393Z,100757.34
2019-01-31T11:52:42.491Z,100762.83
2019-01-31T11:57:07.585Z,100769.34
2019-01-31T12:01:10.275Z,100770.13
2019-01-31T12:05:13.465Z,100778.81
2019-01-31T12:09:19.655Z,100783.16
2019-01-31T12:13:23.506Z,100791.20
2019-01-31T12:17:25.889Z,100800.58
2019-01-31T12:21:28.196Z,100806.17
2019-01-31T12:25:30.396Z,100806.10
2019-01-31T12:29:32.676Z,100807.23
2019-01-31T12:33:36.064Z,100807.86
2019-01-31T12:37:38.426Z,100811.53
2019-01-31T12:41:40.721Z,100815.09
2019-01-31T12:45:43.011Z,100812.24
2019-01-31T12:49:46.057Z,100816.52
2019-01-31T12:53:48.456Z,100818.64
2019-01-31T12:57:50.677Z,100826.13
2019-01-31T13:01:54.882Z,100817.81
2019-01-31T13:05:57.212Z,100824.67
2019-01-31T13:09:59.831Z,100815.20
2019-01-31T13:14:02.042Z,100818.64
2019-01-31T13:18:04.497Z,100824.22
2019-01-31T13:22:06.831Z,100823.92
2019-01-31T13:26:09.156Z,100825.30
2019-01-31T13:30:15.305Z,100832.11
2019-01-31T13:34:17.572Z,100831.27
2019-01-31T13:38:20.975Z,100829.34
2019-01-31T13:42:23.251Z,100832.52
2019-01-31T13:46:25.461Z,100833.00
2019-01-31T13:50:27.723Z,100831.31
2019-01-31T13:54:29.951Z,100829.67
2019-01-31T13:58:32.184Z,100838.25
2019-01-31T14:02:34.626Z,100844.92
2019-01-31T14:06:36.965Z,100842.20
2019-01-31T14:10:39.238Z,100845.26
2019-01-31T14:14:41.495Z,100844.83
2019-01-31T14:18:45.277Z,100849.94
2019-01-31T14:22:47.947Z,100850.84
2019-01-31T14:26:50.151Z,100848.03
2019-01-31T14:30:52.438Z,100855.78
2019-01-31T14:34:55.327Z,100854.28
2019-01-31T14:38:57.591Z,100859.72
2019-01-31T14:43:00.047Z,100857.48
2019-01-31T14:47:02.325Z,100855.91
2019-01-31T14:51:05.031Z,100856.44
2019-01-31T14:55:08.763Z,100856.81
2019-01-31T14:59:11.651Z,100863.69
2019-01-31T15:03:14.256Z,100864.33
2019-01-31T15:07:16.737Z,100870.79
2019-01-31T15:11:19.302Z,100867.27
2019-01-31T15:15:21.873Z,100879.45
2019-01-31T15:19:24.864Z,100878.17
2019-01-31T15:23:27.579Z,100878.73
2019-01-31T15:27:30.538Z,100891.42
2019-01-31T15:31:33.349Z,100891.75
2019-01-31T15:35:36.211Z,100882.13
2019-01-31T15:39:39.123Z,100889.95
2019-01-31T15:43:42.292Z,100890.94
2019-01-31T15:47:45.263Z,100888.94
2019-01-31T15:51:48.328Z,100889.20
2019-01-31T15:55:51.041Z,100889.80
2019-01-31T15:59:53.876Z,100898.98
2019-01-31T16:03:56.837Z,100902.94
2019-01-31T16:07:59.867Z,100911.72
2019-01-31T16:12:02.765Z,100916.33
2019-01-31T16:16:06.196Z,100914.59
2019-01-31T16:20:10.794Z,100914.25
2019-01-31T16:24:13.850Z,100916.95
2019-01-31T16:28:16.666Z,100927.43
2019-01-31T16:32:19.756Z,100925.49
2019-01-31T16:36:22.500Z,100925.70
2019-01-31T16:40:26.321Z,100937.44
2019-01-31T16:44:29.773Z,100934.09
2019-01-31T16:48:32.935Z,100939.13
2019-01-31T16:52:35.669Z,100930.59
2019-01-31T16:56:38.432Z,100930.55
2019-01-31T17:00:41.131Z,100930.55
2019-01-31T17:04:49.898Z,100939.13
2019-01-31T17:08:53.553Z,100944.55
2019-01-31T17:12:57.572Z,100941.00
2019-01-31T17:17:01.821Z,100938.09
2019-01-31T17:21:04.515Z,100943.72
2019-01-31T17:25:09.517Z,100943.02
2019-01-31T17:29:12.292Z,100942.94
2019-01-31T17:33:15.042Z,100959.70
2019-01-31T17:37:18.038Z,100959.47
2019-01-31T17:41:20.762Z,100960.61
2019-01-31T17:45:30.595Z,100966.84
2019-01-31T17:49:28.258Z,100968.44
2019-01-31T17:53:31.022Z,100971.07
2019-01-31T17:57:33.655Z,100970.80
2019-01-31T18:01:36.427Z,100971.97
2019-01-31T18:05:39.168Z,100972.77
2019-01-31T18:09:42.009Z,100970.05
2019-01-31T18:13:44.749Z,100976.83
2019-01-31T18:17:47.529Z,100978.92
2019-01-31T18:21:50.223Z,100984.95
2019-01-31T18:25:53.072Z,100980.49
2019-01-31T18:29:55.681Z,100979.13
2019-01-31T18:33:58.737Z,100972.59
2019-01-31T18:38:01.512Z,100973.85
2019-01-31T18:42:04.249Z,100985.13
2019-01-31T18:46:07.120Z,100977.77
2019-01-31T18:50:13.173Z,100980.84
2019-01-31T18:54:19.753Z,100989.16
2019-01-31T18:58:22.512Z,100994.31
2019-01-31T19:02:25.343Z,100994.27
2019-01-31T19:06:28.202Z,100989.91
2019-01-31T19:10:42.324Z,100991.64
2019-01-31T19:14:35.648Z,100998.05
2019-01-31T19:18:38.502Z,100996.66
2019-01-31T19:22:43.010Z,101008.27
2019-01-31T19:26:47.198Z,101003.37
2019-01-31T19:30:49.998Z,101007.70
2019-01-31T19:34:52.959Z,101012.44
2019-01-31T19:38:56.777Z,101011.56
2019-01-31T19:43:01.377Z,101011.98
2019-01-31T19:47:04.119Z,101016.82
2019-01-31T19:51:06.999Z,101023.80
2019-01-31T19:55:11.022Z,101019.94
2019-01-31T19:59:13.923Z,101020.44
2019-01-31T20:03:16.928Z,101021.67
2019-01-31T20:07:19.763Z,101025.52
2019-01-31T20:11:22.876Z,101035.89
2019-01-31T20:15:26.116Z,101033.16
2019-01-31T20:19:29.136Z,101039.12
2019-01-31T20:23:31.781Z,101042.02
2019-01-31T20:27:35.559Z,101034.63
2019-01-31T20:31:38.580Z,101047.61
2019-01-31T20:35:41.831Z,101043.24
2019-01-31T20:39:44.767Z,101048.39
2019-01-31T20:43:47.820Z,101049.22
2019-01-31T20:47:50.762Z,101042.25
2019-01-31T20:51:53.695Z,101046.11
2019-01-31T20:55:56.382Z,101053.49
2019-01-31T20:59:59.004Z,101047.84
2019-01-31T21:04:01.723Z,101044.79
2019-01-31T21:08:05.229Z,101044.72
2019-01-31T21:12:09.579Z,101043.92
2019-01-31T21:16:12.631Z,101052.17
2019-01-31T21:20:15.820Z,101056.03
2019-01-31T21:24:18.697Z,101058.56
2019-01-31T21:28:21.440Z,101058.52
2019-01-31T21:32:24.332Z,101060.68
2019-01-31T21:36:27.126Z,101065.41
2019-01-31T21:40:32.117Z,101067.09
2019-01-31T21:44:34.914Z,101079.31
2019-01-31T21:48:38.052Z,101078.76
2019-01-31T21:52:40.934Z,101077.00
2019-01-31T21:56:43.799Z,101075.20
2019-01-31T22:00:46.591Z,101072.17
2019-01-31T22:04:49.551Z,101071.28
2019-01-31T22:08:52.259Z,101064.75
2019-01-31T22:12:55.414Z,101068.17
2019-01-31T22:16:58.258Z,101075.50
2019-01-31T22:21:01.316Z,101078.09
2019-01-31T22:25:04.465Z,101088.55
2019-01-31T22:29:08.401Z,101088.48
2019-01-31T22:33:12.121Z,101091.52
2019-01-31T22:37:14.856Z,101094.13
2019-01-31T22:41:17.747Z,101094.55
2019-01-31T22:45:22.469Z,101092.27
2019-01-31T22:49:25.173Z,101089.59
2019-01-31T22:53:28.032Z,101086.08
2019-01-31T22:57:30.786Z,101089.94
2019-01-31T23:01:42.260Z,101088.86
2019-01-31T23:05:46.143Z,101088.35
2019-01-31T23:09:48.866Z,101095.69
2019-01-31T23:13:51.815Z,101085.16
2019-01-31T23:17:54.641Z,101096.47
2019-01-31T23:21:57.405Z,101098.02
2019-01-31T23:26:00.247Z,101100.55
2019-01-31T23:30:03.149Z,101105.34
2019-01-31T23:34:06.747Z,101102.27
2019-01-31T23:38:09.598Z,101096.05
2019-01-31T23:42:12.569Z,101096.49
2019-01-31T23:46:17.227Z,101107.66
2019-01-31T23:50:20.320Z,101097.98
2019-01-31T23:54:22.929Z,101095.29
2019-01-31T23:58:25.794Z,101090.09
